Wetterdaten: Woche 22.05.17 - 28.05.17 (KW21)
Datum Zeit Temp. Aussen Temp. o. S. +5cm Feuchte Auss BlattFeu 1 Luftdruck Regen Sonnenschein Regendauer Solar Windben Empfang
22.05.2017 00:00 13,6 C 11,6 C 9,6 C 73 % 0 lf 1021,6 hPa 0,0 l/m 0,00 h 0,00 h 0 W/m 3,7 km/h (1 Bft) 96,46 %
22.05.2017 01:00 12,4 C 10,4 C 8,7 C 77 % 0 lf 1021,3 hPa 0,0 l/m 0,00 h 0,00 h 0 W/m 1,1 km/h (1 Bft) 96,09 %
22.05.2017 02:00 11,3 C 9,3 C 7,9 C 80 % 0 lf 1021,0 hPa 0,0 l/m 0,00 h 0,00 h 0 W/m 0,3 km/h (0 Bft) 97,73 %
22.05.2017 03:00 10,3 C 8,7 C 7,3 C 83 % 1 lf 1020,6 hPa 0,0 l/m 0,00 h 0,00 h 0 W/m 0,1 km/h (0 Bft) 92,95 %
22.05.2017 04:00 9,5 C 8,6 C 7,0 C 86 % 2 lf 1020,1 hPa 0,0 l/m 0,00 h 0,00 h 0 W/m 0,1 km/h (0 Bft) 96,88 %
22.05.2017 05:00 9,0 C 8,0 C 6,7 C 89 % 2 lf 1019,8 hPa 0,0 l/m 0,00 h 0,00 h 10 W/m 0,5 km/h (0 Bft) 97,32 %
22.05.2017 06:00 8,7 C 8,6 C 7,1 C 91 % 1 lf 1019,8 hPa 0,0 l/m 0,83 h 0,00 h 66 W/m 0,5 km/h (0 Bft) 95,15 %
22.05.2017 07:00 10,1 C 12,6 C 10,0 C 94 % 0 lf 1019,7 hPa 0,0 l/m 1,00 h 0,00 h 222 W/m 8,3 km/h (2 Bft) 95,08 %
22.05.2017 08:00 13,3 C 19,0 C 12,9 C 87 % 0 lf 1019,6 hPa 0,0 l/m 1,00 h 0,00 h 442 W/m 11,7 km/h (2 Bft) 98,14 %
22.05.2017 09:00 18,1 C 24,9 C 17,2 C 68 % 0 lf 1019,3 hPa 0,0 l/m 1,00 h 0,00 h 666 W/m 17,0 km/h (3 Bft) 93,70 %
22.05.2017 10:00 20,7 C 27,6 C 26,9 C 61 % 0 lf 1019,0 hPa 0,0 l/m 1,00 h 0,00 h 875 W/m 16,6 km/h (3 Bft) 96,76 %
22.05.2017 11:00 22,7 C 30,3 C 28,6 C 57 % 0 lf 1018,7 hPa 0,0 l/m 1,00 h 0,00 h 1052 W/m 13,8 km/h (3 Bft) 95,32 %
22.05.2017 12:00 24,2 C 30,9 C 28,6 C 53 % 0 lf 1018,1 hPa 0,0 l/m 0,80 h 0,00 h 757 W/m 16,4 km/h (3 Bft) 96,67 %
22.05.2017 13:00 24,8 C 30,4 C 25,9 C 49 % 0 lf 1017,5 hPa 0,0 l/m 0,97 h 0,00 h 876 W/m 19,0 km/h (3 Bft) 96,25 %
22.05.2017 14:00 25,0 C 29,3 C 31,9 C 47 % 0 lf 1017,0 hPa 0,0 l/m 1,00 h 0,00 h 957 W/m 19,9 km/h (4 Bft) 95,40 %
22.05.2017 15:00 25,3 C 29,4 C 34,0 C 46 % 0 lf 1016,4 hPa 0,0 l/m 1,00 h 0,00 h 888 W/m 18,5 km/h (3 Bft) 97,44 %
22.05.2017 16:00 26,0 C 27,5 C 30,9 C 43 % 0 lf 1015,9 hPa 0,0 l/m 1,00 h 0,00 h 724 W/m 16,6 km/h (3 Bft) 97,09 %
22.05.2017 17:00 26,0 C 26,3 C 24,4 C 42 % 0 lf 1015,4 hPa 0,0 l/m 1,00 h 0,00 h 613 W/m 16,6 km/h (3 Bft) 94,69 %
22.05.2017 18:00 24,9 C 24,9 C 22,8 C 45 % 0 lf 1014,8 hPa 0,0 l/m 0,90 h 0,00 h 408 W/m 13,9 km/h (3 Bft) 98,08 %
22.05.2017 19:00 24,2 C 24,3 C 22,4 C 48 % 0 lf 1014,6 hPa 0,0 l/m 1,03 h 0,00 h 231 W/m 8,9 km/h (2 Bft) 95,07 %
22.05.2017 20:00 23,4 C 22,7 C 19,9 C 50 % 0 lf 1014,5 hPa 0,0 l/m 0,60 h 0,00 h 73 W/m 6,2 km/h (2 Bft) 96,44 %
22.05.2017 21:00 21,9 C 20,5 C 15,0 C 55 % 0 lf 1014,4 hPa 0,0 l/m 0,00 h 0,00 h 13 W/m 4,5 km/h (1 Bft) 97,86 %
22.05.2017 22:00 20,4 C 19,2 C 15,0 C 60 % 0 lf 1014,6 hPa 0,0 l/m 0,00 h 0,00 h 0 W/m 3,4 km/h (1 Bft) 95,06 %
22.05.2017 23:00 19,2 C 18,7 C 15,1 C 64 % 0 lf 1014,7 hPa 0,0 l/m 0,00 h 0,00 h 0 W/m 6,2 km/h (2 Bft) 97,58 %
23.05.2017 00:00 18,7 C 18,4 C 15,9 C 66 % 0 lf 1014,4 hPa 0,0 l/m 0,00 h 0,00 h 0 W/m 10,6 km/h (2 Bft) 95,97 %
23.05.2017 01:00 18,2 C 17,8 C 15,8 C 68 % 0 lf 1014,0 hPa 0,0 l/m 0,00 h 0,00 h 0 W/m 10,8 km/h (2 Bft) 94,80 %
23.05.2017 02:00 17,3 C 16,4 C 13,8 C 72 % 0 lf 1013,9 hPa 0,0 l/m 0,00 h 0,00 h 0 W/m 6,7 km/h (2 Bft) 97,72 %
23.05.2017 03:00 16,2 C 15,6 C 13,0 C 76 % 0 lf 1013,9 hPa 0,0 l/m 0,00 h 0,00 h 0 W/m 5,6 km/h (1 Bft) 96,65 %
23.05.2017 04:00 15,4 C 15,0 C 12,7 C 80 % 0 lf 1014,2 hPa 0,0 l/m 0,00 h 0,00 h 0 W/m 6,4 km/h (2 Bft) 94,46 %
23.05.2017 05:00 14,8 C 14,1 C 11,9 C 81 % 0 lf 1014,2 hPa 0,0 l/m 0,00 h 0,00 h 11 W/m 6,2 km/h (2 Bft) 98,07 %
23.05.2017 06:00 14,8 C 15,5 C 13,2 C 82 % 0 lf 1014,4 hPa 0,0 l/m 0,57 h 0,00 h 67 W/m 10,6 km/h (2 Bft) 97,35 %
23.05.2017 07:00 16,1 C 17,4 C 14,9 C 79 % 0 lf 1014,7 hPa 0,0 l/m 1,00 h 0,00 h 226 W/m 10,4 km/h (2 Bft) 92,53 %
23.05.2017 08:00 18,4 C 23,3 C 17,9 C 75 % 0 lf 1015,0 hPa 0,0 l/m 1,00 h 0,00 h 436 W/m 12,3 km/h (3 Bft) 97,67 %
23.05.2017 09:00 22,0 C 30,5 C 21,1 C 65 % 0 lf 1015,5 hPa 0,0 l/m 1,00 h 0,00 h 659 W/m 15,1 km/h (3 Bft) 97,03 %
23.05.2017 10:00 23,3 C 30,7 C 27,1 C 62 % 0 lf 1015,7 hPa 0,0 l/m 1,00 h 0,00 h 815 W/m 17,4 km/h (3 Bft) 93,88 %
23.05.2017 11:00 24,2 C 32,1 C 28,5 C 59 % 0 lf 1016,0 hPa 0,0 l/m 1,00 h 0,00 h 912 W/m 19,9 km/h (4 Bft) 97,20 %
23.05.2017 12:00 25,5 C 32,7 C 29,9 C 52 % 0 lf 1016,3 hPa 0,0 l/m 0,93 h 0,00 h 926 W/m 22,6 km/h (4 Bft) 95,94 %
23.05.2017 13:00 25,5 C 31,7 C 27,8 C 51 % 0 lf 1016,6 hPa 0,0 l/m 1,00 h 0,00 h 795 W/m 24,3 km/h (4 Bft) 97,09 %
23.05.2017 14:00 25,4 C 29,0 C 28,7 C 53 % 0 lf 1017,0 hPa 0,0 l/m 0,53 h 0,00 h 493 W/m 25,5 km/h (4 Bft) 94,22 %
23.05.2017 15:00 24,7 C 27,7 C 28,4 C 57 % 0 lf 1017,3 hPa 0,0 l/m 0,53 h 0,00 h 471 W/m 27,0 km/h (4 Bft) 97,78 %
23.05.2017 16:00 23,9 C 25,9 C 26,7 C 57 % 0 lf 1017,8 hPa 0,0 l/m 0,73 h 0,00 h 498 W/m 28,5 km/h (4 Bft) 96,72 %
23.05.2017 17:00 22,7 C 23,7 C 22,5 C 54 % 0 lf 1018,6 hPa 0,0 l/m 0,63 h 0,00 h 373 W/m 27,5 km/h (4 Bft) 94,17 %
23.05.2017 18:00 21,6 C 22,4 C 20,7 C 52 % 0 lf 1019,0 hPa 0,0 l/m 1,00 h 0,00 h 370 W/m 25,6 km/h (4 Bft) 97,58 %
23.05.2017 19:00 20,5 C 20,4 C 18,9 C 52 % 0 lf 1019,7 hPa 0,0 l/m 0,90 h 0,00 h 198 W/m 27,3 km/h (4 Bft) 98,00 %
23.05.2017 20:00 19,0 C 18,5 C 17,1 C 57 % 0 lf 1020,6 hPa 0,0 l/m 0,43 h 0,00 h 65 W/m 16,9 km/h (3 Bft) 93,01 %
23.05.2017 21:00 17,7 C 16,5 C 15,0 C 61 % 0 lf 1021,4 hPa 0,0 l/m 0,00 h 0,00 h 10 W/m 9,2 km/h (2 Bft) 98,02 %
23.05.2017 22:00 16,4 C 15,1 C 13,2 C 65 % 0 lf 1022,0 hPa 0,0 l/m 0,00 h 0,00 h 0 W/m 7,7 km/h (2 Bft) 95,82 %
23.05.2017 23:00 15,0 C 13,7 C 11,9 C 68 % 0 lf 1022,2 hPa 0,0 l/m 0,00 h 0,00 h 0 W/m 6,7 km/h (2 Bft) 96,94 %
24.05.2017 00:00 14,2 C 14,3 C 13,1 C 70 % 0 lf 1022,4 hPa 0,0 l/m 0,00 h 0,00 h 0 W/m 4,6 km/h (1 Bft) 91,82 %
24.05.2017 01:00 14,4 C 14,0 C 12,8 C 72 % 0 lf 1022,4 hPa 0,0 l/m 0,00 h 0,00 h 0 W/m 2,2 km/h (1 Bft) 95,18 %
24.05.2017 02:00 14,1 C 12,8 C 11,4 C 73 % 0 lf 1022,2 hPa 0,0 l/m 0,00 h 0,00 h 2 W/m 2,4 km/h (1 Bft) 96,17 %
24.05.2017 03:00 13,1 C 11,8 C 10,1 C 78 % 0 lf 1022,0 hPa 0,0 l/m 0,00 h 0,00 h 4 W/m 1,4 km/h (1 Bft) 98,50 %
24.05.2017 04:00 12,2 C 11,7 C 10,6 C 82 % 0 lf 1022,0 hPa 0,0 l/m 0,00 h 0,00 h 0 W/m 0,8 km/h (0 Bft) 93,23 %
24.05.2017 05:00 11,9 C 11,6 C 10,1 C 82 % 0 lf 1022,0 hPa 0,0 l/m 0,00 h 0,00 h 8 W/m 1,3 km/h (1 Bft) 96,58 %
24.05.2017 06:00 11,8 C 12,2 C 10,8 C 85 % 0 lf 1022,1 hPa 0,0 l/m 0,10 h 0,00 h 39 W/m 1,2 km/h (1 Bft) 98,22 %
24.05.2017 07:00 12,7 C 15,1 C 13,9 C 85 % 0 lf 1022,4 hPa 0,0 l/m 0,03 h 0,00 h 104 W/m 1,5 km/h (1 Bft) 95,03 %
24.05.2017 08:00 14,7 C 19,0 C 15,8 C 81 % 0 lf 1022,8 hPa 0,0 l/m 0,47 h 0,00 h 211 W/m 5,0 km/h (1 Bft) 96,30 %
24.05.2017 09:00 17,4 C 20,7 C 18,8 C 77 % 0 lf 1023,1 hPa 0,0 l/m 0,43 h 0,00 h 259 W/m 10,8 km/h (2 Bft) 97,58 %
24.05.2017 10:00 18,6 C 23,0 C 21,7 C 77 % 0 lf 1023,0 hPa 0,0 l/m 0,57 h 0,00 h 372 W/m 13,7 km/h (3 Bft) 94,30 %
24.05.2017 11:00 20,5 C 26,4 C 24,3 C 73 % 0 lf 1022,8 hPa 0,0 l/m 0,70 h 0,00 h 466 W/m 12,8 km/h (3 Bft) 97,65 %
24.05.2017 12:00 22,0 C 25,8 C 24,9 C 68 % 0 lf 1022,6 hPa 0,0 l/m 0,33 h 0,00 h 373 W/m 16,9 km/h (3 Bft) 96,44 %
24.05.2017 13:00 22,3 C 25,8 C 24,8 C 64 % 0 lf 1022,3 hPa 0,0 l/m 0,30 h 0,00 h 363 W/m 17,4 km/h (3 Bft) 96,58 %
24.05.2017 14:00 23,6 C 28,3 C 27,9 C 59 % 0 lf 1022,2 hPa 0,0 l/m 0,63 h 0,00 h 520 W/m 20,8 km/h (4 Bft) 95,73 %
24.05.2017 15:00 23,3 C 26,5 C 26,1 C 60 % 0 lf 1022,1 hPa 0,0 l/m 0,53 h 0,00 h 386 W/m 20,6 km/h (4 Bft) 95,72 %
24.05.2017 16:00 23,2 C 25,4 C 24,9 C 60 % 0 lf 1022,0 hPa 0,0 l/m 0,30 h 0,00 h 330 W/m 18,2 km/h (3 Bft) 96,73 %
24.05.2017 17:00 23,5 C 25,1 C 24,4 C 59 % 0 lf 1021,7 hPa 0,0 l/m 0,50 h 0,00 h 305 W/m 20,9 km/h (4 Bft) 96,30 %
24.05.2017 18:00 22,9 C 23,7 C 22,3 C 60 % 0 lf 1021,5 hPa 0,0 l/m 0,57 h 0,00 h 269 W/m 21,7 km/h (4 Bft) 94,64 %
24.05.2017 19:00 22,0 C 22,0 C 20,3 C 62 % 0 lf 1021,6 hPa 0,0 l/m 0,60 h 0,00 h 155 W/m 21,7 km/h (4 Bft) 98,79 %
24.05.2017 20:00 21,0 C 20,7 C 19,1 C 65 % 0 lf 1022,0 hPa 0,0 l/m 1,00 h 0,00 h 84 W/m 19,1 km/h (3 Bft) 93,95 %
24.05.2017 21:00 19,7 C 18,8 C 17,2 C 69 % 0 lf 1022,2 hPa 0,0 l/m 0,33 h 0,00 h 19 W/m 15,4 km/h (3 Bft) 96,30 %
24.05.2017 22:00 18,2 C 17,1 C 15,7 C 74 % 0 lf 1022,7 hPa 0,0 l/m 0,00 h 0,00 h 0 W/m 13,3 km/h (3 Bft) 97,15 %
24.05.2017 23:00 16,9 C 15,9 C 14,6 C 77 % 0 lf 1023,1 hPa 0,0 l/m 0,00 h 0,00 h 0 W/m 13,2 km/h (3 Bft) 95,02 %
25.05.2017 00:00 15,5 C 13,7 C 12,3 C 80 % 0 lf 1023,2 hPa 0,0 l/m 0,00 h 0,00 h 0 W/m 6,7 km/h (2 Bft) 93,06 %
25.05.2017 01:00 14,3 C 12,6 C 11,2 C 84 % 1 lf 1023,3 hPa 0,0 l/m 0,00 h 0,00 h 0 W/m 4,5 km/h (1 Bft) 96,16 %
25.05.2017 02:00 13,1 C 11,2 C 9,8 C 85 % 1 lf 1023,3 hPa 0,0 l/m 0,00 h 0,00 h 5 W/m 2,5 km/h (1 Bft) 93,58 %
25.05.2017 03:00 12,2 C 10,5 C 9,3 C 87 % 3 lf 1023,3 hPa 0,0 l/m 0,00 h 0,00 h 0 W/m 0,0 km/h (0 Bft) 98,65 %
25.05.2017 04:00 11,4 C 10,0 C 8,8 C 88 % 14 lf 1023,1 hPa 0,0 l/m 0,00 h 0,00 h 0 W/m 0,0 km/h (0 Bft) 96,21 %
25.05.2017 05:00 11,0 C 10,2 C 9,2 C 90 % 15 lf 1023,1 hPa 0,0 l/m 0,00 h 0,00 h 9 W/m 1,1 km/h (1 Bft) 94,52 %
25.05.2017 06:00 11,6 C 12,0 C 11,2 C 94 % 5 lf 1023,3 hPa 0,0 l/m 0,00 h 0,00 h 30 W/m 10,5 km/h (2 Bft) 96,52 %
25.05.2017 07:00 12,1 C 14,0 C 12,3 C 94 % 0 lf 1023,7 hPa 0,0 l/m 0,20 h 0,00 h 121 W/m 9,2 km/h (2 Bft) 96,80 %
25.05.2017 08:00 12,7 C 16,0 C 13,8 C 92 % 0 lf 1024,1 hPa 0,0 l/m 0,30 h 0,00 h 188 W/m 8,1 km/h (2 Bft) 95,52 %
25.05.2017 09:00 13,8 C 20,2 C 15,2 C 89 % 0 lf 1024,3 hPa 0,0 l/m 0,40 h 0,00 h 298 W/m 8,2 km/h (2 Bft) 96,22 %
25.05.2017 10:00 16,4 C 27,5 C 22,6 C 80 % 0 lf 1024,4 hPa 0,0 l/m 1,00 h 0,00 h 547 W/m 9,2 km/h (2 Bft) 95,59 %
25.05.2017 11:00 18,3 C 29,1 C 23,5 C 71 % 0 lf 1024,4 hPa 0,0 l/m 1,00 h 0,00 h 677 W/m 14,2 km/h (3 Bft) 96,01 %
25.05.2017 12:00 19,7 C 29,3 C 24,0 C 67 % 0 lf 1024,1 hPa 0,0 l/m 0,80 h 0,00 h 640 W/m 13,9 km/h (3 Bft) 95,66 %
25.05.2017 13:00 21,2 C 30,1 C 22,7 C 61 % 0 lf 1023,7 hPa 0,0 l/m 1,00 h 0,00 h 823 W/m 14,6 km/h (3 Bft) 96,80 %
25.05.2017 14:00 22,0 C 30,0 C 29,5 C 60 % 0 lf 1023,4 hPa 0,0 l/m 1,00 h 0,00 h 813 W/m 15,1 km/h (3 Bft) 96,34 %
25.05.2017 15:00 23,0 C 28,9 C 30,9 C 57 % 0 lf 1022,9 hPa 0,0 l/m 1,00 h 0,00 h 760 W/m 17,8 km/h (3 Bft) 96,04 %
25.05.2017 16:00 23,8 C 25,8 C 27,4 C 55 % 0 lf 1022,3 hPa 0,0 l/m 1,00 h 0,00 h 666 W/m 19,1 km/h (3 Bft) 96,84 %
25.05.2017 17:00 24,3 C 25,6 C 23,0 C 54 % 0 lf 1021,9 hPa 0,0 l/m 1,00 h 0,00 h 545 W/m 19,1 km/h (3 Bft) 96,08 %
25.05.2017 18:00 24,0 C 24,8 C 22,6 C 55 % 0 lf 1021,6 hPa 0,0 l/m 1,00 h 0,00 h 430 W/m 20,1 km/h (4 Bft) 94,66 %
25.05.2017 19:00 23,6 C 23,8 C 22,1 C 56 % 0 lf 1021,3 hPa 0,0 l/m 1,00 h 0,00 h 253 W/m 19,4 km/h (3 Bft) 97,37 %
25.05.2017 20:00 22,7 C 22,3 C 20,2 C 59 % 0 lf 1021,2 hPa 0,0 l/m 0,80 h 0,00 h 78 W/m 13,0 km/h (3 Bft) 96,58 %
25.05.2017 21:00 21,5 C 20,2 C 17,5 C 64 % 0 lf 1021,3 hPa 0,0 l/m 0,07 h 0,00 h 13 W/m 6,9 km/h (2 Bft) 94,37 %
25.05.2017 22:00 19,7 C 17,2 C 14,5 C 69 % 0 lf 1021,6 hPa 0,0 l/m 0,00 h 0,00 h 0 W/m 0,5 km/h (0 Bft) 97,01 %
25.05.2017 23:00 17,9 C 15,5 C 13,2 C 75 % 0 lf 1021,7 hPa 0,0 l/m 0,00 h 0,00 h 0 W/m 0,3 km/h (0 Bft) 95,72 %
26.05.2017 00:00 16,4 C 14,2 C 12,4 C 80 % 0 lf 1021,7 hPa 0,0 l/m 0,00 h 0,00 h 0 W/m 0,2 km/h (0 Bft) 96,32 %
26.05.2017 01:00 15,3 C 14,7 C 12,4 C 84 % 0 lf 1021,7 hPa 0,0 l/m 0,00 h 0,00 h 0 W/m 5,7 km/h (1 Bft) 96,15 %
26.05.2017 02:00 15,3 C 14,7 C 12,4 C 86 % 0 lf 1021,5 hPa 0,0 l/m 0,00 h 0,00 h 0 W/m 5,9 km/h (2 Bft) 94,80 %
26.05.2017 03:00 14,9 C 13,7 C 11,6 C 86 % 1 lf 1021,4 hPa 0,0 l/m 0,00 h 0,00 h 0 W/m 2,9 km/h (1 Bft) 96,30 %
26.05.2017 04:00 14,1 C 12,4 C 10,7 C 86 % 1 lf 1021,5 hPa 0,0 l/m 0,00 h 0,00 h 0 W/m 0,7 km/h (0 Bft) 97,80 %
26.05.2017 05:00 13,3 C 11,8 C 10,1 C 88 % 2 lf 1021,8 hPa 0,0 l/m 0,03 h 0,00 h 11 W/m 0,3 km/h (0 Bft) 94,66 %
26.05.2017 06:00 12,9 C 12,6 C 11,1 C 91 % 2 lf 1021,8 hPa 0,0 l/m 1,00 h 0,00 h 100 W/m 2,6 km/h (1 Bft) 94,88 %
26.05.2017 07:00 14,1 C 15,6 C 13,6 C 94 % 0 lf 1021,8 hPa 0,0 l/m 1,00 h 0,00 h 231 W/m 8,1 km/h (2 Bft) 97,65 %
26.05.2017 08:00 16,5 C 22,0 C 15,8 C 88 % 0 lf 1022,2 hPa 0,0 l/m 1,00 h 0,00 h 398 W/m 10,3 km/h (2 Bft) 96,15 %
26.05.2017 09:00 20,5 C 29,1 C 19,5 C 73 % 0 lf 1022,2 hPa 0,0 l/m 1,00 h 0,00 h 548 W/m 14,7 km/h (3 Bft) 95,44 %
26.05.2017 10:00 23,1 C 31,2 C 29,1 C 63 % 0 lf 1021,8 hPa 0,0 l/m 1,00 h 0,00 h 738 W/m 14,2 km/h (3 Bft) 97,51 %
26.05.2017 11:00 24,4 C 31,7 C 29,5 C 57 % 0 lf 1021,3 hPa 0,0 l/m 1,00 h 0,00 h 884 W/m 16,5 km/h (3 Bft) 94,38 %
26.05.2017 12:00 25,3 C 32,8 C 29,2 C 55 % 0 lf 1020,9 hPa 0,0 l/m 1,00 h 0,00 h 866 W/m 15,7 km/h (3 Bft) 96,80 %
26.05.2017 13:00 26,4 C 33,5 C 27,3 C 52 % 0 lf 1020,2 hPa 0,0 l/m 1,00 h 0,00 h 1042 W/m 14,0 km/h (3 Bft) 96,84 %
26.05.2017 14:00 27,2 C 33,3 C 35,0 C 50 % 0 lf 1019,5 hPa 0,0 l/m 1,00 h 0,00 h 1026 W/m 14,9 km/h (3 Bft) 95,16 %
26.05.2017 15:00 28,2 C 33,2 C 38,2 C 48 % 0 lf 1018,8 hPa 0,0 l/m 1,00 h 0,00 h 956 W/m 14,2 km/h (3 Bft) 97,65 %
26.05.2017 16:00 28,6 C 29,7 C 33,2 C 47 % 0 lf 1018,2 hPa 0,0 l/m 1,00 h 0,00 h 838 W/m 15,1 km/h (3 Bft) 95,86 %
26.05.2017 17:00 28,7 C 29,1 C 26,6 C 47 % 0 lf 1017,8 hPa 0,0 l/m 1,00 h 0,00 h 680 W/m 16,9 km/h (3 Bft) 95,17 %
26.05.2017 18:00 27,6 C 27,7 C 25,2 C 50 % 0 lf 1017,3 hPa 0,0 l/m 1,00 h 0,00 h 494 W/m 18,3 km/h (3 Bft) 98,50 %
26.05.2017 19:00 26,8 C 26,6 C 24,4 C 52 % 0 lf 1017,2 hPa 0,0 l/m 1,00 h 0,00 h 292 W/m 20,0 km/h (4 Bft) 94,45 %
26.05.2017 20:00 25,7 C 25,1 C 22,8 C 56 % 0 lf 1017,2 hPa 0,0 l/m 1,00 h 0,00 h 105 W/m 17,1 km/h (3 Bft) 96,58 %
26.05.2017 21:00 24,1 C 23,1 C 19,0 C 59 % 0 lf 1017,3 hPa 0,0 l/m 0,33 h 0,00 h 18 W/m 12,1 km/h (2 Bft) 96,97 %
26.05.2017 22:00 22,7 C 21,9 C 19,0 C 62 % 0 lf 1017,7 hPa 0,0 l/m 0,00 h 0,00 h 0 W/m 12,5 km/h (3 Bft) 95,66 %
26.05.2017 23:00 21,4 C 20,4 C 17,7 C 66 % 0 lf 1017,9 hPa 0,0 l/m 0,00 h 0,00 h 0 W/m 9,1 km/h (2 Bft) 95,59 %
27.05.2017 00:00 20,3 C 19,8 C 17,5 C 70 % 0 lf 1017,7 hPa 0,0 l/m 0,00 h 0,00 h 0 W/m 12,2 km/h (2 Bft) 97,18 %
27.05.2017 01:00 19,5 C 19,0 C 16,7 C 72 % 0 lf 1017,5 hPa 0,0 l/m 0,00 h 0,00 h 0 W/m 10,4 km/h (2 Bft) 96,56 %
27.05.2017 02:00 18,7 C 17,5 C 14,6 C 74 % 0 lf 1017,4 hPa 0,0 l/m 0,00 h 0,00 h 0 W/m 6,2 km/h (2 Bft) 95,67 %
27.05.2017 03:00 18,3 C 18,6 C 16,4 C 74 % 0 lf 1017,1 hPa 0,0 l/m 0,00 h 0,00 h 0 W/m 15,7 km/h (3 Bft) 95,66 %
27.05.2017 04:00 18,2 C 17,5 C 15,0 C 74 % 0 lf 1017,4 hPa 0,0 l/m 0,00 h 0,00 h 0 W/m 10,0 km/h (2 Bft) 97,56 %
27.05.2017 05:00 17,0 C 15,8 C 13,4 C 77 % 0 lf 1017,6 hPa 0,0 l/m 0,30 h 0,00 h 21 W/m 5,8 km/h (2 Bft) 94,65 %
27.05.2017 06:00 16,2 C 16,4 C 13,9 C 82 % 0 lf 1017,9 hPa 0,0 l/m 1,00 h 0,00 h 104 W/m 7,3 km/h (2 Bft) 95,31 %
27.05.2017 07:00 17,3 C 18,4 C 16,3 C 80 % 0 lf 1017,9 hPa 0,0 l/m 1,00 h 0,00 h 234 W/m 18,6 km/h (3 Bft) 97,41 %
27.05.2017 08:00 19,8 C 24,2 C 18,5 C 73 % 0 lf 1017,7 hPa 0,0 l/m 1,00 h 0,00 h 453 W/m 23,2 km/h (4 Bft) 97,28 %
27.05.2017 09:00 23,5 C 30,4 C 21,9 C 63 % 0 lf 1017,5 hPa 0,0 l/m 1,00 h 0,00 h 684 W/m 22,6 km/h (4 Bft) 93,12 %
27.05.2017 10:00 25,7 C 32,0 C 31,6 C 57 % 0 lf 1017,2 hPa 0,0 l/m 1,00 h 0,00 h 630 W/m 24,5 km/h (4 Bft) 98,31 %
27.05.2017 11:00 27,5 C 33,5 C 33,0 C 51 % 0 lf 1016,6 hPa 0,0 l/m 1,00 h 0,00 h 714 W/m 27,6 km/h (4 Bft) 95,32 %
27.05.2017 12:00 28,9 C 34,3 C 33,5 C 47 % 0 lf 1016,2 hPa 0,0 l/m 1,00 h 0,00 h 782 W/m 28,8 km/h (5 Bft) 95,67 %
27.05.2017 13:00 30,1 C 35,0 C 31,3 C 44 % 0 lf 1015,9 hPa 0,0 l/m 1,00 h 0,00 h 845 W/m 27,1 km/h (4 Bft) 96,79 %
27.05.2017 14:00 30,8 C 35,2 C 38,8 C 41 % 0 lf 1015,5 hPa 0,0 l/m 1,00 h 0,00 h 836 W/m 25,4 km/h (4 Bft) 95,99 %
27.05.2017 15:00 31,5 C 34,8 C 40,9 C 40 % 0 lf 1015,0 hPa 0,0 l/m 1,00 h 0,00 h 775 W/m 24,4 km/h (4 Bft) 96,11 %
27.05.2017 16:00 31,9 C 32,8 C 37,3 C 39 % 0 lf 1014,7 hPa 0,0 l/m 1,00 h 0,00 h 704 W/m 22,8 km/h (4 Bft) 96,87 %
27.05.2017 17:00 32,3 C 32,3 C 30,5 C 38 % 0 lf 1014,5 hPa 0,0 l/m 1,00 h 0,00 h 600 W/m 20,8 km/h (4 Bft) 95,40 %
27.05.2017 18:00 31,3 C 31,2 C 28,6 C 39 % 0 lf 1014,4 hPa 0,0 l/m 1,00 h 0,00 h 547 W/m 18,7 km/h (3 Bft) 96,96 %
27.05.2017 19:00 30,3 C 29,9 C 27,3 C 43 % 0 lf 1014,2 hPa 0,0 l/m 1,00 h 0,00 h 353 W/m 16,2 km/h (3 Bft) 96,15 %
27.05.2017 20:00 29,1 C 28,1 C 25,3 C 46 % 0 lf 1014,3 hPa 0,0 l/m 1,00 h 0,00 h 108 W/m 12,5 km/h (3 Bft) 96,39 %
27.05.2017 21:00 27,4 C 25,8 C 22,0 C 50 % 0 lf 1014,8 hPa 0,0 l/m 0,23 h 0,00 h 14 W/m 6,3 km/h (2 Bft) 95,57 %
27.05.2017 22:00 25,4 C 24,1 C 20,7 C 55 % 0 lf 1015,5 hPa 0,0 l/m 0,00 h 0,00 h 0 W/m 7,3 km/h (2 Bft) 96,54 %
27.05.2017 23:00 24,1 C 23,4 C 20,5 C 58 % 0 lf 1015,5 hPa 0,0 l/m 0,00 h 0,00 h 0 W/m 7,4 km/h (2 Bft) 96,47 %
28.05.2017 00:00 23,3 C 22,5 C 20,5 C 66 % 0 lf 1016,1 hPa 0,0 l/m 0,00 h 0,00 h 0 W/m 9,9 km/h (2 Bft) 96,74 %
28.05.2017 01:00 22,0 C 20,9 C 19,3 C 75 % 0 lf 1016,4 hPa 0,0 l/m 0,00 h 0,00 h 0 W/m 11,0 km/h (2 Bft) 95,89 %
28.05.2017 02:00 20,9 C 19,3 C 17,6 C 77 % 0 lf 1016,7 hPa 0,0 l/m 0,00 h 0,00 h 0 W/m 3,9 km/h (1 Bft) 97,23 %
28.05.2017 03:00 19,7 C 18,3 C 16,4 C 81 % 0 lf 1016,7 hPa 0,0 l/m 0,00 h 0,00 h 0 W/m 3,6 km/h (1 Bft) 94,69 %
28.05.2017 04:00 18,8 C 18,2 C 16,7 C 85 % 0 lf 1016,7 hPa 0,0 l/m 0,00 h 0,00 h 0 W/m 6,2 km/h (2 Bft) 97,47 %
28.05.2017 05:00 18,5 C 17,9 C 16,3 C 87 % 1 lf 1017,2 hPa 0,0 l/m 0,00 h 0,00 h 8 W/m 6,2 km/h (2 Bft) 97,74 %
28.05.2017 06:00 18,3 C 18,3 C 17,0 C 88 % 0 lf 1017,4 hPa 0,0 l/m 0,00 h 0,00 h 19 W/m 6,2 km/h (2 Bft) 94,09 %
28.05.2017 07:00 18,4 C 17,9 C 16,7 C 87 % 8 lf 1017,7 hPa 0,0 l/m 0,00 h 0,20 h 19 W/m 4,3 km/h (1 Bft) 96,62 %
28.05.2017 08:00 18,7 C 23,0 C 18,9 C 87 % 4 lf 1017,7 hPa 0,0 l/m 0,50 h 0,10 h 213 W/m 4,8 km/h (1 Bft) 98,81 %
28.05.2017 09:00 21,5 C 30,4 C 22,3 C 78 % 2 lf 1017,7 hPa 0,0 l/m 0,90 h 0,00 h 446 W/m 8,3 km/h (2 Bft) 93,40 %
28.05.2017 10:00 21,5 C 18,9 C 17,8 C 81 % 13 lf 1018,9 hPa 5,0 l/m 0,00 h 0,53 h 48 W/m 12,7 km/h (3 Bft) 97,55 %
28.05.2017 11:00 19,0 C 18,4 C 17,3 C 92 % 15 lf 1017,8 hPa 0,8 l/m 0,00 h 0,87 h 128 W/m 9,6 km/h (2 Bft) 97,59 %
28.05.2017 12:00 20,1 C 23,3 C 22,0 C 95 % 9 lf 1017,5 hPa 0,0 l/m 0,50 h 0,03 h 436 W/m 8,7 km/h (2 Bft) 95,00 %
28.05.2017 13:00 23,6 C 31,0 C 25,7 C 82 % 0 lf 1017,4 hPa 0,0 l/m 1,00 h 0,00 h 730 W/m 9,3 km/h (2 Bft) 95,75 %
28.05.2017 14:00 26,2 C 33,2 C 32,8 C 71 % 0 lf 1017,0 hPa 0,0 l/m 1,00 h 0,00 h 742 W/m 8,0 km/h (2 Bft) 98,01 %
28.05.2017 15:00 27,3 C 34,0 C 34,2 C 65 % 0 lf 1016,6 hPa 0,0 l/m 1,00 h 0,00 h 713 W/m 9,8 km/h (2 Bft) 96,28 %
28.05.2017 16:00 27,5 C 30,6 C 30,7 C 63 % 0 lf 1016,3 hPa 0,0 l/m 1,00 h 0,00 h 525 W/m 9,4 km/h (2 Bft) 95,89 %
28.05.2017 17:00 27,8 C 29,8 C 27,2 C 62 % 0 lf 1015,9 hPa 0,0 l/m 1,00 h 0,00 h 460 W/m 8,5 km/h (2 Bft) 95,09 %
28.05.2017 18:00 27,5 C 28,5 C 26,3 C 65 % 0 lf 1015,6 hPa 0,0 l/m 1,00 h 0,00 h 357 W/m 11,7 km/h (2 Bft) 97,80 %
28.05.2017 19:00 26,5 C 26,5 C 23,6 C 71 % 0 lf 1015,4 hPa 0,0 l/m 1,00 h 0,00 h 199 W/m 13,5 km/h (3 Bft) 95,21 %
28.05.2017 20:00 25,6 C 25,5 C 23,6 C 75 % 0 lf 1015,3 hPa 0,0 l/m 1,00 h 0,00 h 139 W/m 10,4 km/h (2 Bft) 96,30 %
28.05.2017 21:00 24,8 C 23,6 C 21,4 C 78 % 0 lf 1015,2 hPa 0,0 l/m 0,37 h 0,00 h 24 W/m 5,1 km/h (1 Bft) 96,97 %
28.05.2017 22:00 23,6 C 21,9 C 19,2 C 80 % 0 lf 1015,4 hPa 0,0 l/m 0,00 h 0,00 h 0 W/m 1,0 km/h (0 Bft) 96,23 %
28.05.2017 23:00 22,6 C 21,9 C 19,4 C 84 % 0 lf 1015,0 hPa 0,0 l/m 0,00 h 0,03 h 0 W/m 0,0 km/h (0 Bft) 94,96 %
Min-Datum _ 22.05.17 22.05.17 22.05.17 27.05.17 22.05.17 23.05.17 - - - - 22.05.17 24.05.17
_ Min-Zeit 05:58 05:04 04:36 17:28 00:00 02:50 - - - - 00:38 00:02
Minimum _ 8,7 C 7,8 C 6,7 C 36 % 0 lf 1013,8 hPa - - - - 0,0 km/h (0 Bft) 5,88 %
Max-Datum _ 27.05.17 27.05.17 27.05.17 28.05.17 25.05.17 25.05.17 28.05.17 22.05.17 28.05.17 23.05.17 27.05.17 22.05.17
_ Max-Zeit 17:20 12:34 15:20 12:12 04:34 11:00 10:16 19:00 07:14 12:44 11:32 00:46
Maximum _ 32,4 C 36,7 C 42,2 C 96 % 15 lf 1024,5 hPa 5,0 l/m 0,07 h 0,03 h 1172 W/m 39,7 km/h
N (6 Bft)
100,00 %
Durchschnitt _ 20,4 C 22,1 C 20,1 C 68 % 1 lf 1019,0 hPa #5,8 l/m #86:32 h #1:46 h 411 W/m 11,7 km/h (2 Bft) 96,14 %
© 2017 W. Hausmann